Weather History for KTHA - April, 2014

Change the Weather History Date:

Saturday, April 19, 2014

  Actual Average Record
Temperature  
Mean Temperature 58 °F -  
Max Temperature 73 °F 74 °F 73 °F (2013)
Min Temperature 44 °F 49 °F 33 °F (2013)
Degree Days  
Heating Degree Days 6    
Growing Degree Days 8 (Base 50)    
Moisture  
Dew Point 40 °F    
Average Humidity 57    
Maximum Humidity 93    
Minimum Humidity 25    
Precipitation  
Precipitation 0.00 in - - ()
Sea Level Pressure  
Sea Level Pressure 30.17 in    
Wind  
Wind Speed 3 mph (NE)    
Max Wind Speed 14 mph    
Max Gust Speed -    
Visibility 10 miles    
Events      
Averages and records for this station are not official NWS values.
T = Trace of Precipitation, MM = Missing Value Source: NWS Daily Summary

Daily Weather History Graph

Daily Weather History Graph

Search for Another Location

Airport or City:

Trip Planner

Search our weather history database for the weather conditions in past years. The results will help you decide how hot, cold, wet, or windy it might be!

Date:

Astronomy

Apr. 19, 2014 Rise Set
Actual Time 6:07 AM CDT 7:21 PM CDT
Civil Twilight 5:41 AM CDT 7:47 PM CDT
Nautical Twilight 5:09 AM CDT 8:19 PM CDT
Astronomical Twilight 4:36 AM CDT 8:52 PM CDT
Moon 11:56 PM CDT (4/19) 9:30 AM CDT (4/19)
Length of Visible Light 14h 06m
Length of Day
13h 13m
Waning Gibbous, 78% of the Moon is Illuminated
Apr 19
Waning Gibbous
Apr 22
Last Quarter
Apr 29
New
May 6
First Quarter
May 14
Full

Hourly Weather History & Observations

Time (CDT) Temp. Dew Point Humidity Pressure Visibility Wind Dir Wind Speed Gust Speed Precip Events Conditions
12:15 AM 48.2 °F 44.6 °F 87% 30.18 in 10.0 mi Calm Calm - N/A   Clear
12:35 AM 48.2 °F 44.6 °F 87% 30.17 in 10.0 mi Calm Calm - N/A   Clear
12:55 AM 48.2 °F 44.6 °F 87% 30.17 in 10.0 mi Calm Calm - N/A   Clear
1:15 AM 48.2 °F 44.6 °F 87% 30.16 in 10.0 mi Calm Calm - N/A   Clear
1:35 AM 48.2 °F 44.6 °F 87% 30.15 in 10.0 mi Calm Calm - N/A   Clear
1:55 AM 48.2 °F 44.6 °F 87% 30.16 in 10.0 mi Calm Calm - N/A   Clear
2:15 AM 46.4 °F 42.8 °F 87% 30.15 in 10.0 mi Calm Calm - N/A   Clear
2:35 AM 44.6 °F 42.8 °F 93% 30.15 in 10.0 mi Calm Calm - N/A   Clear
2:55 AM 44.6 °F 42.8 °F 93% 30.15 in 10.0 mi Calm Calm - N/A   Clear
3:15 AM 44.6 °F 42.8 °F 93% 30.16 in 10.0 mi Calm Calm - N/A   Clear
3:35 AM 44.6 °F 42.8 °F 93% 30.16 in 10.0 mi Calm Calm - N/A   Clear
3:55 AM 46.4 °F 42.8 °F 87% 30.16 in 10.0 mi Calm Calm - N/A   Clear
4:15 AM 46.4 °F 42.8 °F 87% 30.16 in 10.0 mi Calm Calm - N/A   Clear
4:35 AM 44.6 °F 42.8 °F 93% 30.16 in 10.0 mi Calm Calm - N/A   Clear
4:55 AM 46.4 °F 42.8 °F 87% 30.16 in 10.0 mi Calm Calm - N/A   Clear
5:15 AM 48.2 °F 42.8 °F 82% 30.15 in 10.0 mi North 4.6 mph - N/A   Unknown
5:35 AM 48.2 °F 44.6 °F 87% 30.16 in 10.0 mi North 4.6 mph - N/A   Unknown
5:55 AM 48.2 °F 44.6 °F 87% 30.16 in 10.0 mi North 4.6 mph - N/A   Unknown
6:15 AM 50.0 °F 44.6 °F 82% 30.17 in 10.0 mi North 3.5 mph - N/A   Clear
6:35 AM 48.2 °F 44.6 °F 87% 30.16 in 10.0 mi North 4.6 mph - N/A   Clear
6:55 AM 50.0 °F 42.8 °F 76% 30.17 in 10.0 mi Calm Calm - N/A   Clear
7:15 AM 51.8 °F 44.6 °F 76% 30.17 in 10.0 mi Calm Calm - N/A   Clear
7:35 AM 51.8 °F 44.6 °F 76% 30.17 in 10.0 mi Calm Calm - N/A   Clear
7:55 AM 51.8 °F 44.6 °F 76% 30.17 in 10.0 mi NE 4.6 mph - N/A   Clear
8:15 AM 53.6 °F 44.6 °F 72% 30.17 in 10.0 mi NNE 5.8 mph - N/A   Clear
8:35 AM 55.4 °F 42.8 °F 63% 30.17 in 10.0 mi NNE 5.8 mph - N/A   Clear
8:55 AM 59.0 °F 41.0 °F 51% 30.18 in 10.0 mi NE 10.4 mph - N/A   Clear
9:15 AM 59.0 °F 39.2 °F 48% 30.19 in 10.0 mi NNE 8.1 mph - N/A   Clear
9:35 AM 60.8 °F 39.2 °F 45% 30.19 in 10.0 mi NNE 10.4 mph - N/A   Clear
9:55 AM 62.6 °F 39.2 °F 42% 30.19 in 10.0 mi NNE 9.2 mph - N/A   Clear
10:15 AM 62.6 °F 39.2 °F 42% 30.19 in 10.0 mi NNE 6.9 mph - N/A   Clear
10:35 AM 64.4 °F 39.2 °F 40% 30.19 in 10.0 mi NNE 12.7 mph - N/A   Clear
10:55 AM 66.2 °F 39.2 °F 37% 30.19 in 10.0 mi NNE 13.8 mph - N/A   Clear
11:15 AM 66.2 °F 37.4 °F 35% 30.19 in 10.0 mi ENE 12.7 mph - N/A   Clear
11:35 AM 66.2 °F 37.4 °F 35% 30.19 in 10.0 mi NE 9.2 mph - N/A   Clear
11:55 AM 66.2 °F 37.4 °F 35% 30.19 in 10.0 mi NE 10.4 mph - N/A   Clear
12:15 PM 66.2 °F 37.4 °F 35% 30.19 in 10.0 mi NNE 9.2 mph - N/A   Clear
12:35 PM 66.2 °F 39.2 °F 37% 30.18 in 10.0 mi North 9.2 mph - N/A   Clear
12:55 PM 66.2 °F 37.4 °F 35% 30.18 in 10.0 mi NE 10.4 mph - N/A   Clear
1:15 PM 66.2 °F 37.4 °F 35% 30.18 in 10.0 mi NNE 10.4 mph - N/A   Clear
1:35 PM 68.0 °F 39.2 °F 35% 30.18 in 10.0 mi North 8.1 mph - N/A   Clear
1:55 PM 71.6 °F 39.2 °F 31% 30.17 in 10.0 mi NE 6.9 mph - N/A   Clear
2:15 PM 71.6 °F 37.4 °F 29% 30.17 in 10.0 mi NE 8.1 mph - N/A   Clear
2:35 PM 71.6 °F 37.4 °F 29% 30.16 in 10.0 mi NNE 8.1 mph - N/A   Clear
2:55 PM 71.6 °F 37.4 °F 29% 30.15 in 10.0 mi NE 4.6 mph - N/A   Clear
3:15 PM 71.6 °F 35.6 °F 27% 30.15 in 10.0 mi NNE 9.2 mph - N/A   Clear
3:35 PM 71.6 °F 37.4 °F 29% 30.15 in 10.0 mi Variable 6.9 mph - N/A   Clear
3:55 PM 71.6 °F 37.4 °F 29% 30.14 in 10.0 mi Variable 6.9 mph - N/A   Clear
4:15 PM 73.4 °F 37.4 °F 27% 30.13 in 10.0 mi ENE 6.9 mph - N/A   Clear
4:35 PM 73.4 °F 37.4 °F 27% 30.13 in 10.0 mi ENE 5.8 mph - N/A   Clear
4:55 PM 73.4 °F 35.6 °F 25% 30.13 in 10.0 mi NE 9.2 mph - N/A   Clear
5:15 PM 73.4 °F 35.6 °F 25% 30.13 in 10.0 mi NE 9.2 mph - N/A   Clear
5:35 PM 73.4 °F 35.6 °F 25% 30.14 in 10.0 mi NE 9.2 mph - N/A   Clear
5:55 PM 71.6 °F 37.4 °F 29% 30.14 in 10.0 mi NNE 9.2 mph - N/A   Clear
6:15 PM 71.6 °F 35.6 °F 27% 30.14 in 10.0 mi ENE 5.8 mph - N/A   Clear
6:35 PM 71.6 °F 37.4 °F 29% 30.14 in 10.0 mi NE 5.8 mph - N/A   Clear
6:55 PM 69.8 °F 35.6 °F 28% 30.15 in 10.0 mi NE 4.6 mph - N/A   Clear
7:15 PM 69.8 °F 35.6 °F 28% 30.15 in 10.0 mi NNE 3.5 mph - N/A   Clear
7:35 PM 68.0 °F 35.6 °F 30% 30.15 in 10.0 mi Calm Calm - N/A   Clear
7:55 PM 64.4 °F 37.4 °F 37% 30.16 in 10.0 mi Calm Calm - N/A   Clear
8:15 PM 60.8 °F 39.2 °F 45% 30.16 in 10.0 mi Calm Calm - N/A   Clear
8:35 PM 57.2 °F 39.2 °F 51% 30.16 in 10.0 mi Calm Calm - N/A   Clear
8:55 PM 53.6 °F 39.2 °F 58% 30.17 in 10.0 mi Calm Calm - N/A   Clear
9:15 PM 55.4 °F 42.8 °F 63% 30.17 in 10.0 mi Calm Calm - N/A   Clear
9:35 PM 59.0 °F 39.2 °F 48% 30.18 in 10.0 mi ESE 3.5 mph - N/A   Clear
9:55 PM 55.4 °F 39.2 °F 54% 30.18 in 10.0 mi Calm Calm - N/A   Clear
10:15 PM 51.8 °F 41.0 °F 67% 30.18 in 10.0 mi Calm Calm - N/A   Clear
10:35 PM 51.8 °F 41.0 °F 67% 30.18 in 10.0 mi Calm Calm - N/A   Clear
10:55 PM 50.0 °F 41.0 °F 71% 30.18 in 10.0 mi Calm Calm - N/A   Clear
11:15 PM 50.0 °F 41.0 °F 71% 30.19 in 10.0 mi Calm Calm - N/A   Clear
11:35 PM 46.4 °F 41.0 °F 81% 30.18 in 10.0 mi Calm Calm - N/A   Clear
11:55 PM 48.2 °F 41.0 °F 76% 30.18 in 10.0 mi Calm Calm - N/A   Clear